PWSweather.com
Personal Weather Stations
Station Observations
WD4JKH
Forsyth, GA 31029

Forsyth, GA 31029

Lat: 33.033225, Lon: -83.927995

Elevation: 709

Station Type: Davis Vantage VUE

High Low Average
Temperature 77.1°F25.1°C 56.0°F13.3°C 65.1°F18.4°C
Dew Point 66.9°F19.4°C 52.9°F11.6°C 61.2°F16.2°C
Winds 14.7 mph 23.7 kmh 1.6 mph 2.6 kmh 6.0 mph WSW9.7 kmh WSW
Wind Gusts 28.0 mph45.1 kmh 6.0 mph9.7 kmh 16.0 mph25.7 kmh
Humidity 97% 63% 88%
Pressure 30.04 in1017.3 mb 29.76 in1007.8 mb -
Precipitation 0.08 in2.0 mm - -
Hour Temp Dew Point Humidity Winds Wind Gusts Pressure Precip Precip Rate Daily Precip Total
12:01 AM 66.0°F18.9°C 63.6°F17.6°C 92% 3.9 mph SW6.3 kmh SW 11.0 mph17.7 kmh 29.92 in1013.2 mb 0.00 in0.0 mm 0.00 in0.0 mm 0.00 in0.0 mm
12:06 AM 66.1°F18.9°C 63.7°F17.6°C 92% 6.8 mph SW10.9 kmh SW 11.0 mph17.7 kmh 29.92 in1013.2 mb 0.00 in0.0 mm 0.00 in0.0 mm 0.00 in0.0 mm
12:11 AM 66.2°F19.0°C 63.8°F17.7°C 92% 4.5 mph SSW7.2 kmh SSW 11.0 mph17.7 kmh 29.92 in1013.2 mb 0.00 in0.0 mm 0.00 in0.0 mm 0.00 in0.0 mm
12:16 AM 66.2°F19.0°C 63.8°F17.7°C 92% 4.9 mph SSW7.9 kmh SSW 11.0 mph17.7 kmh 29.92 in1013.2 mb 0.00 in0.0 mm 0.00 in0.0 mm 0.00 in0.0 mm
12:21 AM 66.3°F19.1°C 63.9°F17.7°C 92% 6.2 mph SW10.0 kmh SW 12.0 mph19.3 kmh 29.92 in1013.2 mb 0.00 in0.0 mm 0.00 in0.0 mm 0.00 in0.0 mm
12:26 AM 66.3°F19.1°C 63.9°F17.7°C 92% 4.6 mph SSW7.4 kmh SSW 12.0 mph19.3 kmh 29.92 in1013.2 mb 0.00 in0.0 mm 0.00 in0.0 mm 0.00 in0.0 mm
12:31 AM 66.5°F19.2°C 64.1°F17.8°C 92% 4.8 mph SW7.7 kmh SW 12.0 mph19.3 kmh 29.92 in1013.2 mb 0.00 in0.0 mm 0.00 in0.0 mm 0.00 in0.0 mm
12:36 AM 66.6°F19.2°C 64.2°F17.9°C 92% 7.8 mph SW12.6 kmh SW 12.0 mph19.3 kmh 29.92 in1013.2 mb 0.00 in0.0 mm 0.00 in0.0 mm 0.00 in0.0 mm
12:41 AM 66.7°F19.3°C 64.3°F17.9°C 92% 5.0 mph SW8.0 kmh SW 12.0 mph19.3 kmh 29.92 in1013.2 mb 0.00 in0.0 mm 0.00 in0.0 mm 0.00 in0.0 mm
12:46 AM 66.7°F19.3°C 64.3°F17.9°C 92% 7.4 mph SW11.9 kmh SW 13.0 mph20.9 kmh 29.92 in1013.2 mb 0.00 in0.0 mm 0.00 in0.0 mm 0.00 in0.0 mm
12:51 AM 66.7°F19.3°C 64.3°F17.9°C 92% 4.7 mph SSW7.6 kmh SSW 13.0 mph20.9 kmh 29.92 in1013.2 mb 0.00 in0.0 mm 0.00 in0.0 mm 0.00 in0.0 mm
12:56 AM 66.6°F19.2°C 64.2°F17.9°C 92% 4.6 mph SW7.4 kmh SW 13.0 mph20.9 kmh 29.92 in1013.2 mb 0.00 in0.0 mm 0.00 in0.0 mm 0.00 in0.0 mm
01:01 AM 66.6°F19.2°C 64.2°F17.9°C 92% 4.7 mph SW7.6 kmh SW 13.0 mph20.9 kmh 29.92 in1013.2 mb 0.00 in0.0 mm 0.00 in0.0 mm 0.00 in0.0 mm
01:06 AM 66.6°F19.2°C 64.2°F17.9°C 92% 6.7 mph SW10.8 kmh SW 11.0 mph17.7 kmh 29.92 in1013.2 mb 0.00 in0.0 mm 0.00 in0.0 mm 0.00 in0.0 mm
01:11 AM 66.6°F19.2°C 64.2°F17.9°C 92% 4.9 mph SW7.9 kmh SW 14.0 mph22.5 kmh 29.92 in1013.2 mb 0.00 in0.0 mm 0.00 in0.0 mm 0.00 in0.0 mm
01:16 AM 66.5°F19.2°C 64.1°F17.8°C 92% 3.7 mph SSW6.0 kmh SSW 14.0 mph22.5 kmh 29.92 in1013.2 mb 0.00 in0.0 mm 0.00 in0.0 mm 0.00 in0.0 mm
01:21 AM 66.5°F19.2°C 64.4°F18.0°C 93% 4.8 mph SW7.7 kmh SW 14.0 mph22.5 kmh 29.92 in1013.2 mb 0.00 in0.0 mm 0.00 in0.0 mm 0.00 in0.0 mm
01:26 AM 66.5°F19.2°C 64.4°F18.0°C 93% 5.5 mph SW8.9 kmh SW 14.0 mph22.5 kmh 29.92 in1013.2 mb 0.00 in0.0 mm 0.00 in0.0 mm 0.00 in0.0 mm
01:31 AM 66.5°F19.2°C 64.4°F18.0°C 93% 4.6 mph SW7.4 kmh SW 14.0 mph22.5 kmh 29.92 in1013.2 mb 0.00 in0.0 mm 0.00 in0.0 mm 0.00 in0.0 mm
01:36 AM 66.6°F19.2°C 64.5°F18.1°C 93% 4.6 mph SW7.4 kmh SW 14.0 mph22.5 kmh 29.92 in1013.2 mb 0.00 in0.0 mm 0.00 in0.0 mm 0.00 in0.0 mm
01:41 AM 66.5°F19.2°C 64.4°F18.0°C 93% 5.8 mph SW9.3 kmh SW 14.0 mph22.5 kmh 29.92 in1013.2 mb 0.00 in0.0 mm 0.00 in0.0 mm 0.00 in0.0 mm
01:46 AM 66.5°F19.2°C 64.4°F18.0°C 93% 6.2 mph SW10.0 kmh SW 13.0 mph20.9 kmh 29.91 in1012.9 mb 0.00 in0.0 mm 0.00 in0.0 mm 0.00 in0.0 mm
01:51 AM 66.6°F19.2°C 64.5°F18.1°C 93% 6.9 mph SW11.1 kmh SW 15.0 mph24.1 kmh 29.91 in1012.9 mb 0.00 in0.0 mm 0.00 in0.0 mm 0.00 in0.0 mm
01:56 AM 66.6°F19.2°C 64.5°F18.1°C 93% 6.7 mph SW10.8 kmh SW 16.0 mph25.7 kmh 29.90 in1012.5 mb 0.00 in0.0 mm 0.00 in0.0 mm 0.00 in0.0 mm
02:01 AM 66.6°F19.2°C 64.5°F18.1°C 93% 4.8 mph SW7.7 kmh SW 16.0 mph25.7 kmh 29.91 in1012.9 mb 0.00 in0.0 mm 0.00 in0.0 mm 0.00 in0.0 mm
02:06 AM 66.6°F19.2°C 64.5°F18.1°C 93% 4.9 mph SW7.9 kmh SW 16.0 mph25.7 kmh 29.91 in1012.9 mb 0.00 in0.0 mm 0.00 in0.0 mm 0.00 in0.0 mm
02:11 AM 66.6°F19.2°C 64.5°F18.1°C 93% 5.3 mph SW8.5 kmh SW 16.0 mph25.7 kmh 29.91 in1012.9 mb 0.00 in0.0 mm 0.00 in0.0 mm 0.00 in0.0 mm
02:16 AM 66.6°F19.2°C 64.5°F18.1°C 93% 6.3 mph SW10.1 kmh SW 13.0 mph20.9 kmh 29.90 in1012.5 mb 0.00 in0.0 mm 0.00 in0.0 mm 0.00 in0.0 mm
02:21 AM 66.6°F19.2°C 64.2°F17.9°C 92% 4.3 mph SW6.9 kmh SW 13.0 mph20.9 kmh 29.90 in1012.5 mb 0.00 in0.0 mm 0.00 in0.0 mm 0.00 in0.0 mm
02:26 AM 66.6°F19.2°C 64.5°F18.1°C 93% 5.2 mph SW8.4 kmh SW 13.0 mph20.9 kmh 29.90 in1012.5 mb 0.00 in0.0 mm 0.00 in0.0 mm 0.00 in0.0 mm
02:31 AM 66.6°F19.2°C 64.5°F18.1°C 93% 6.0 mph SW9.7 kmh SW 13.0 mph20.9 kmh 29.90 in1012.5 mb 0.00 in0.0 mm 0.00 in0.0 mm 0.00 in0.0 mm
02:36 AM 66.5°F19.2°C 64.4°F18.0°C 93% 5.6 mph SW9.0 kmh SW 13.0 mph20.9 kmh 29.90 in1012.5 mb 0.00 in0.0 mm 0.00 in0.0 mm 0.00 in0.0 mm
02:41 AM 66.4°F19.1°C 64.3°F17.9°C 93% 4.2 mph SW6.8 kmh SW 13.0 mph20.9 kmh 29.89 in1012.2 mb 0.00 in0.0 mm 0.00 in0.0 mm 0.00 in0.0 mm
02:46 AM 66.3°F19.1°C 64.5°F18.1°C 94% 4.4 mph SW7.1 kmh SW 13.0 mph20.9 kmh 29.89 in1012.2 mb 0.00 in0.0 mm 0.00 in0.0 mm 0.00 in0.0 mm
02:51 AM 66.2°F19.0°C 64.4°F18.0°C 94% 3.8 mph SW6.1 kmh SW 12.0 mph19.3 kmh 29.89 in1012.2 mb 0.00 in0.0 mm 0.00 in0.0 mm 0.00 in0.0 mm
02:56 AM 66.1°F18.9°C 64.3°F17.9°C 94% 4.3 mph SW6.9 kmh SW 11.0 mph17.7 kmh 29.89 in1012.2 mb 0.00 in0.0 mm 0.00 in0.0 mm 0.00 in0.0 mm
03:01 AM 66.1°F18.9°C 64.6°F18.1°C 95% 6.4 mph SW10.3 kmh SW 12.0 mph19.3 kmh 29.89 in1012.2 mb 0.00 in0.0 mm 0.00 in0.0 mm 0.00 in0.0 mm
03:06 AM 66.0°F18.9°C 64.5°F18.1°C 95% 3.9 mph SW6.3 kmh SW 12.0 mph19.3 kmh 29.88 in1011.9 mb 0.00 in0.0 mm 0.00 in0.0 mm 0.00 in0.0 mm
03:11 AM 66.0°F18.9°C 64.5°F18.1°C 95% 4.5 mph SW7.2 kmh SW 13.0 mph20.9 kmh 29.88 in1011.9 mb 0.00 in0.0 mm 0.00 in0.0 mm 0.00 in0.0 mm
03:16 AM 66.1°F18.9°C 64.6°F18.1°C 95% 6.1 mph SW9.8 kmh SW 14.0 mph22.5 kmh 29.88 in1011.9 mb 0.00 in0.0 mm 0.00 in0.0 mm 0.00 in0.0 mm
03:21 AM 66.2°F19.0°C 64.7°F18.2°C 95% 4.4 mph SW7.1 kmh SW 14.0 mph22.5 kmh 29.88 in1011.9 mb 0.00 in0.0 mm 0.00 in0.0 mm 0.00 in0.0 mm
03:26 AM 66.2°F19.0°C 64.7°F18.2°C 95% 6.7 mph SW10.8 kmh SW 14.0 mph22.5 kmh 29.88 in1011.9 mb 0.00 in0.0 mm 0.00 in0.0 mm 0.00 in0.0 mm
03:31 AM 66.2°F19.0°C 64.4°F18.0°C 94% 4.1 mph SW6.6 kmh SW 14.0 mph22.5 kmh 29.88 in1011.9 mb 0.00 in0.0 mm 0.00 in0.0 mm 0.00 in0.0 mm
03:36 AM 66.2°F19.0°C 64.4°F18.0°C 94% 5.7 mph SW9.2 kmh SW 14.0 mph22.5 kmh 29.88 in1011.9 mb 0.00 in0.0 mm 0.00 in0.0 mm 0.00 in0.0 mm
03:41 AM 66.2°F19.0°C 64.4°F18.0°C 94% 4.3 mph SW6.9 kmh SW 13.0 mph20.9 kmh 29.88 in1011.9 mb 0.00 in0.0 mm 0.00 in0.0 mm 0.00 in0.0 mm
03:46 AM 66.2°F19.0°C 64.4°F18.0°C 94% 6.6 mph SW10.6 kmh SW 13.0 mph20.9 kmh 29.88 in1011.9 mb 0.00 in0.0 mm 0.00 in0.0 mm 0.00 in0.0 mm
03:51 AM 66.3°F19.1°C 64.5°F18.1°C 94% 3.3 mph WSW5.3 kmh WSW 13.0 mph20.9 kmh 29.88 in1011.9 mb 0.00 in0.0 mm 0.00 in0.0 mm 0.00 in0.0 mm
03:56 AM 66.3°F19.1°C 64.5°F18.1°C 94% 5.9 mph SW9.5 kmh SW 13.0 mph20.9 kmh 29.88 in1011.9 mb 0.00 in0.0 mm 0.00 in0.0 mm 0.00 in0.0 mm
04:01 AM 66.3°F19.1°C 64.5°F18.1°C 94% 3.3 mph SW5.3 kmh SW 13.0 mph20.9 kmh 29.88 in1011.9 mb 0.00 in0.0 mm 0.00 in0.0 mm 0.00 in0.0 mm
04:06 AM 66.3°F19.1°C 64.5°F18.1°C 94% 4.7 mph SW7.6 kmh SW 12.0 mph19.3 kmh 29.89 in1012.2 mb 0.00 in0.0 mm 0.00 in0.0 mm 0.00 in0.0 mm
04:11 AM 66.2°F19.0°C 64.4°F18.0°C 94% 2.6 mph SW4.2 kmh SW 12.0 mph19.3 kmh 29.89 in1012.2 mb 0.00 in0.0 mm 0.00 in0.0 mm 0.00 in0.0 mm
04:16 AM 66.2°F19.0°C 64.7°F18.2°C 95% 1.9 mph SW3.1 kmh SW 8.0 mph12.9 kmh 29.89 in1012.2 mb 0.00 in0.0 mm 0.00 in0.0 mm 0.00 in0.0 mm
04:21 AM 66.2°F19.0°C 64.7°F18.2°C 95% 5.3 mph SW8.5 kmh SW 11.0 mph17.7 kmh 29.88 in1011.9 mb 0.00 in0.0 mm 0.00 in0.0 mm 0.00 in0.0 mm
04:26 AM 66.2°F19.0°C 64.7°F18.2°C 95% 3.8 mph SW6.1 kmh SW 11.0 mph17.7 kmh 29.88 in1011.9 mb 0.00 in0.0 mm 0.00 in0.0 mm 0.00 in0.0 mm
04:31 AM 66.2°F19.0°C 64.7°F18.2°C 95% 4.5 mph SW7.2 kmh SW 11.0 mph17.7 kmh 29.88 in1011.9 mb 0.00 in0.0 mm 0.00 in0.0 mm 0.00 in0.0 mm
04:36 AM 66.2°F19.0°C 64.7°F18.2°C 95% 3.9 mph SW6.3 kmh SW 11.0 mph17.7 kmh 29.88 in1011.9 mb 0.00 in0.0 mm 0.00 in0.0 mm 0.00 in0.0 mm
04:41 AM 66.2°F19.0°C 64.7°F18.2°C 95% 2.6 mph SW4.2 kmh SW 9.0 mph14.5 kmh 29.88 in1011.9 mb 0.00 in0.0 mm 0.00 in0.0 mm 0.00 in0.0 mm
04:46 AM 66.1°F18.9°C 64.6°F18.1°C 95% 3.3 mph SW5.3 kmh SW 9.0 mph14.5 kmh 29.88 in1011.9 mb 0.00 in0.0 mm 0.00 in0.0 mm 0.00 in0.0 mm
04:51 AM 66.1°F18.9°C 64.6°F18.1°C 95% 3.5 mph SSW5.6 kmh SSW 9.0 mph14.5 kmh 29.87 in1011.5 mb 0.00 in0.0 mm 0.00 in0.0 mm 0.00 in0.0 mm
04:56 AM 66.2°F19.0°C 64.7°F18.2°C 95% 4.9 mph SW7.9 kmh SW 10.0 mph16.1 kmh 29.88 in1011.9 mb 0.00 in0.0 mm 0.00 in0.0 mm 0.00 in0.0 mm
05:01 AM 66.3°F19.1°C 64.8°F18.2°C 95% 3.6 mph SW5.8 kmh SW 11.0 mph17.7 kmh 29.88 in1011.9 mb 0.00 in0.0 mm 0.00 in0.0 mm 0.00 in0.0 mm
05:06 AM 66.4°F19.1°C 64.9°F18.3°C 95% 2.0 mph SW3.2 kmh SW 11.0 mph17.7 kmh 29.88 in1011.9 mb 0.00 in0.0 mm 0.00 in0.0 mm 0.00 in0.0 mm
05:11 AM 66.3°F19.1°C 64.8°F18.2°C 95% 3.2 mph SW5.1 kmh SW 11.0 mph17.7 kmh 29.88 in1011.9 mb 0.00 in0.0 mm 0.00 in0.0 mm 0.00 in0.0 mm
05:16 AM 66.3°F19.1°C 64.8°F18.2°C 95% 3.9 mph SW6.3 kmh SW 8.0 mph12.9 kmh 29.88 in1011.9 mb 0.00 in0.0 mm 0.00 in0.0 mm 0.00 in0.0 mm
05:21 AM 66.4°F19.1°C 64.9°F18.3°C 95% 2.6 mph SSW4.2 kmh SSW 8.0 mph12.9 kmh 29.88 in1011.9 mb 0.00 in0.0 mm 0.00 in0.0 mm 0.00 in0.0 mm
05:26 AM 66.4°F19.1°C 64.9°F18.3°C 95% 3.2 mph SW5.1 kmh SW 8.0 mph12.9 kmh 29.88 in1011.9 mb 0.00 in0.0 mm 0.00 in0.0 mm 0.00 in0.0 mm
05:31 AM 66.4°F19.1°C 64.9°F18.3°C 95% 6.3 mph SW10.1 kmh SW 10.0 mph16.1 kmh 29.88 in1011.9 mb 0.00 in0.0 mm 0.00 in0.0 mm 0.00 in0.0 mm
05:36 AM 66.4°F19.1°C 64.9°F18.3°C 95% 3.8 mph SSW6.1 kmh SSW 10.0 mph16.1 kmh 29.88 in1011.9 mb 0.00 in0.0 mm 0.00 in0.0 mm 0.00 in0.0 mm
05:41 AM 66.4°F19.1°C 64.9°F18.3°C 95% 4.6 mph SW7.4 kmh SW 10.0 mph16.1 kmh 29.88 in1011.9 mb 0.00 in0.0 mm 0.00 in0.0 mm 0.00 in0.0 mm
05:46 AM 66.4°F19.1°C 64.9°F18.3°C 95% 3.0 mph SW4.8 kmh SW 10.0 mph16.1 kmh 29.88 in1011.9 mb 0.00 in0.0 mm 0.00 in0.0 mm 0.00 in0.0 mm
05:51 AM 66.4°F19.1°C 64.9°F18.3°C 95% 2.2 mph SW3.5 kmh SW 10.0 mph16.1 kmh 29.88 in1011.9 mb 0.00 in0.0 mm 0.00 in0.0 mm 0.00 in0.0 mm
05:56 AM 66.4°F19.1°C 64.9°F18.3°C 95% 2.8 mph SW4.5 kmh SW 8.0 mph12.9 kmh 29.88 in1011.9 mb 0.00 in0.0 mm 0.00 in0.0 mm 0.00 in0.0 mm
06:01 AM 66.4°F19.1°C 64.9°F18.3°C 95% 3.6 mph SW5.8 kmh SW 8.0 mph12.9 kmh 29.88 in1011.9 mb 0.00 in0.0 mm 0.00 in0.0 mm 0.00 in0.0 mm
06:06 AM 66.4°F19.1°C 64.9°F18.3°C 95% 3.8 mph SW6.1 kmh SW 10.0 mph16.1 kmh 29.88 in1011.9 mb 0.00 in0.0 mm 0.00 in0.0 mm 0.00 in0.0 mm
06:11 AM 66.4°F19.1°C 64.9°F18.3°C 95% 3.1 mph SW5.0 kmh SW 10.0 mph16.1 kmh 29.88 in1011.9 mb 0.00 in0.0 mm 0.00 in0.0 mm 0.00 in0.0 mm
06:16 AM 66.4°F19.1°C 64.9°F18.3°C 95% 2.6 mph SSW4.2 kmh SSW 10.0 mph16.1 kmh 29.88 in1011.9 mb 0.00 in0.0 mm 0.00 in0.0 mm 0.00 in0.0 mm
06:21 AM 66.3°F19.1°C 64.8°F18.2°C 95% 3.1 mph SSW5.0 kmh SSW 10.0 mph16.1 kmh 29.88 in1011.9 mb 0.04 in1.0 mm 0.48 in12.2 mm 0.04 in1.0 mm
06:26 AM 66.2°F19.0°C 64.7°F18.2°C 95% 2.2 mph SSW3.5 kmh SSW 10.0 mph16.1 kmh 29.87 in1011.5 mb 0.05 in1.3 mm 0.12 in3.0 mm 0.05 in1.3 mm
06:31 AM 66.0°F18.9°C 64.5°F18.1°C 95% 2.8 mph SW4.5 kmh SW 6.0 mph9.7 kmh 29.88 in1011.9 mb 0.05 in1.3 mm 0.00 in0.0 mm 0.05 in1.3 mm
06:36 AM 66.0°F18.9°C 64.8°F18.2°C 96% 2.2 mph S3.5 kmh S 6.0 mph9.7 kmh 29.88 in1011.9 mb 0.05 in1.3 mm 0.00 in0.0 mm 0.05 in1.3 mm
06:41 AM 65.9°F18.8°C 64.7°F18.2°C 96% 2.0 mph SSW3.2 kmh SSW 7.0 mph11.3 kmh 29.88 in1011.9 mb 0.05 in1.3 mm 0.00 in0.0 mm 0.05 in1.3 mm
06:46 AM 65.9°F18.8°C 64.7°F18.2°C 96% 4.2 mph SSW6.8 kmh SSW 8.0 mph12.9 kmh 29.88 in1011.9 mb 0.05 in1.3 mm 0.00 in0.0 mm 0.05 in1.3 mm
06:51 AM 65.8°F18.8°C 64.6°F18.1°C 96% 1.8 mph SSW2.9 kmh SSW 9.0 mph14.5 kmh 29.88 in1011.9 mb 0.05 in1.3 mm 0.00 in0.0 mm 0.05 in1.3 mm
06:56 AM 65.8°F18.8°C 64.6°F18.1°C 96% 1.6 mph SSW2.6 kmh SSW 9.0 mph14.5 kmh 29.89 in1012.2 mb 0.05 in1.3 mm 0.00 in0.0 mm 0.05 in1.3 mm
07:01 AM 65.7°F18.7°C 64.5°F18.1°C 96% 2.9 mph SW4.7 kmh SW 9.0 mph14.5 kmh 29.89 in1012.2 mb 0.05 in1.3 mm 0.00 in0.0 mm 0.05 in1.3 mm
07:06 AM 65.7°F18.7°C 64.5°F18.1°C 96% 3.5 mph SW5.6 kmh SW 9.0 mph14.5 kmh 29.89 in1012.2 mb 0.05 in1.3 mm 0.00 in0.0 mm 0.05 in1.3 mm
07:11 AM 65.7°F18.7°C 64.8°F18.2°C 97% 3.6 mph SW5.8 kmh SW 8.0 mph12.9 kmh 29.89 in1012.2 mb 0.05 in1.3 mm 0.00 in0.0 mm 0.05 in1.3 mm
07:16 AM 65.8°F18.8°C 64.9°F18.3°C 97% 7.3 mph SW11.7 kmh SW 16.0 mph25.7 kmh 29.89 in1012.2 mb 0.05 in1.3 mm 0.00 in0.0 mm 0.05 in1.3 mm
07:21 AM 65.9°F18.8°C 64.7°F18.2°C 96% 4.1 mph WSW6.6 kmh WSW 16.0 mph25.7 kmh 29.89 in1012.2 mb 0.01 in0.3 mm 0.00 in0.0 mm 0.05 in1.3 mm
07:26 AM 65.9°F18.8°C 64.7°F18.2°C 96% 2.5 mph SW4.0 kmh SW 16.0 mph25.7 kmh 29.89 in1012.2 mb 0.00 in0.0 mm 0.00 in0.0 mm 0.05 in1.3 mm
07:31 AM 65.9°F18.8°C 64.7°F18.2°C 96% 4.2 mph SW6.8 kmh SW 16.0 mph25.7 kmh 29.89 in1012.2 mb 0.00 in0.0 mm 0.00 in0.0 mm 0.05 in1.3 mm
07:36 AM 66.0°F18.9°C 64.8°F18.2°C 96% 3.4 mph SW5.5 kmh SW 10.0 mph16.1 kmh 29.89 in1012.2 mb 0.00 in0.0 mm 0.00 in0.0 mm 0.05 in1.3 mm
07:41 AM 65.9°F18.8°C 64.7°F18.2°C 96% 4.9 mph SW7.9 kmh SW 10.0 mph16.1 kmh 29.88 in1011.9 mb 0.00 in0.0 mm 0.00 in0.0 mm 0.05 in1.3 mm
07:46 AM 66.0°F18.9°C 64.8°F18.2°C 96% 6.4 mph SW10.3 kmh SW 12.0 mph19.3 kmh 29.88 in1011.9 mb 0.00 in0.0 mm 0.00 in0.0 mm 0.05 in1.3 mm
07:51 AM 66.1°F18.9°C 64.9°F18.3°C 96% 4.4 mph SW7.1 kmh SW 12.0 mph19.3 kmh 29.88 in1011.9 mb 0.00 in0.0 mm 0.00 in0.0 mm 0.05 in1.3 mm
07:56 AM 66.1°F18.9°C 64.9°F18.3°C 96% 3.3 mph SW5.3 kmh SW 12.0 mph19.3 kmh 29.88 in1011.9 mb 0.00 in0.0 mm 0.00 in0.0 mm 0.05 in1.3 mm
08:01 AM 66.2°F19.0°C 65.0°F18.3°C 96% 4.3 mph SW6.9 kmh SW 12.0 mph19.3 kmh 29.88 in1011.9 mb 0.00 in0.0 mm 0.00 in0.0 mm 0.05 in1.3 mm
08:06 AM 66.3°F19.1°C 64.8°F18.2°C 95% 4.4 mph SSW7.1 kmh SSW 10.0 mph16.1 kmh 29.87 in1011.5 mb 0.00 in0.0 mm 0.00 in0.0 mm 0.05 in1.3 mm
08:11 AM 66.4°F19.1°C 64.9°F18.3°C 95% 4.6 mph SW7.4 kmh SW 10.0 mph16.1 kmh 29.88 in1011.9 mb 0.00 in0.0 mm 0.00 in0.0 mm 0.05 in1.3 mm
08:16 AM 66.4°F19.1°C 64.9°F18.3°C 95% 7.2 mph SW11.6 kmh SW 12.0 mph19.3 kmh 29.88 in1011.9 mb 0.00 in0.0 mm 0.00 in0.0 mm 0.05 in1.3 mm
08:21 AM 66.6°F19.2°C 65.1°F18.4°C 95% 7.7 mph SW12.4 kmh SW 12.0 mph19.3 kmh 29.88 in1011.9 mb 0.00 in0.0 mm 0.00 in0.0 mm 0.05 in1.3 mm
08:26 AM 66.8°F19.3°C 65.0°F18.3°C 94% 5.0 mph SW8.0 kmh SW 12.0 mph19.3 kmh 29.88 in1011.9 mb 0.00 in0.0 mm 0.00 in0.0 mm 0.05 in1.3 mm
08:31 AM 66.8°F19.3°C 65.0°F18.3°C 94% 5.0 mph SW8.0 kmh SW 12.0 mph19.3 kmh 29.88 in1011.9 mb 0.00 in0.0 mm 0.00 in0.0 mm 0.05 in1.3 mm
08:36 AM 66.9°F19.4°C 65.1°F18.4°C 94% 5.3 mph SW8.5 kmh SW 12.0 mph19.3 kmh 29.88 in1011.9 mb 0.00 in0.0 mm 0.00 in0.0 mm 0.05 in1.3 mm
08:41 AM 67.0°F19.4°C 65.2°F18.4°C 94% 4.9 mph SW7.9 kmh SW 12.0 mph19.3 kmh 29.88 in1011.9 mb 0.00 in0.0 mm 0.00 in0.0 mm 0.05 in1.3 mm
08:46 AM 67.1°F19.5°C 65.3°F18.5°C 94% 5.9 mph SW9.5 kmh SW 12.0 mph19.3 kmh 29.88 in1011.9 mb 0.00 in0.0 mm 0.00 in0.0 mm 0.05 in1.3 mm
08:51 AM 67.3°F19.6°C 65.2°F18.4°C 93% 5.7 mph SW9.2 kmh SW 13.0 mph20.9 kmh 29.88 in1011.9 mb 0.00 in0.0 mm 0.00 in0.0 mm 0.05 in1.3 mm
08:56 AM 67.6°F19.8°C 65.5°F18.6°C 93% 6.6 mph SW10.6 kmh SW 13.0 mph20.9 kmh 29.88 in1011.9 mb 0.00 in0.0 mm 0.00 in0.0 mm 0.05 in1.3 mm
09:01 AM 67.8°F19.9°C 65.7°F18.7°C 93% 4.6 mph SW7.4 kmh SW 13.0 mph20.9 kmh 29.88 in1011.9 mb 0.00 in0.0 mm 0.00 in0.0 mm 0.05 in1.3 mm
09:06 AM 68.1°F20.1°C 65.7°F18.7°C 92% 8.1 mph SW13.0 kmh SW 14.0 mph22.5 kmh 29.88 in1011.9 mb 0.00 in0.0 mm 0.00 in0.0 mm 0.05 in1.3 mm
09:11 AM 68.4°F20.2°C 65.6°F18.7°C 91% 8.2 mph SW13.2 kmh SW 20.0 mph32.2 kmh 29.88 in1011.9 mb 0.00 in0.0 mm 0.00 in0.0 mm 0.05 in1.3 mm
09:16 AM 68.5°F20.3°C 65.4°F18.6°C 90% 6.6 mph SW10.6 kmh SW 20.0 mph32.2 kmh 29.88 in1011.9 mb 0.00 in0.0 mm 0.00 in0.0 mm 0.05 in1.3 mm
09:21 AM 68.6°F20.3°C 65.5°F18.6°C 90% 6.0 mph SW9.7 kmh SW 22.0 mph35.4 kmh 29.88 in1011.9 mb 0.00 in0.0 mm 0.00 in0.0 mm 0.05 in1.3 mm
09:26 AM 68.9°F20.5°C 65.5°F18.6°C 89% 5.1 mph SW8.2 kmh SW 22.0 mph35.4 kmh 29.88 in1011.9 mb 0.00 in0.0 mm 0.00 in0.0 mm 0.05 in1.3 mm
09:31 AM 69.2°F20.7°C 65.8°F18.8°C 89% 6.5 mph SW10.5 kmh SW 22.0 mph35.4 kmh 29.87 in1011.5 mb 0.00 in0.0 mm 0.00 in0.0 mm 0.05 in1.3 mm
09:36 AM 69.4°F20.8°C 65.7°F18.7°C 88% 7.5 mph SW12.1 kmh SW 22.0 mph35.4 kmh 29.87 in1011.5 mb 0.00 in0.0 mm 0.00 in0.0 mm 0.05 in1.3 mm
09:41 AM 69.6°F20.9°C 65.6°F18.7°C 87% 7.1 mph SW11.4 kmh SW 19.0 mph30.6 kmh 29.87 in1011.5 mb 0.00 in0.0 mm 0.00 in0.0 mm 0.05 in1.3 mm
09:46 AM 69.9°F21.1°C 65.5°F18.6°C 86% 9.2 mph SW14.8 kmh SW 20.0 mph32.2 kmh 29.87 in1011.5 mb 0.00 in0.0 mm 0.00 in0.0 mm 0.05 in1.3 mm
09:51 AM 70.1°F21.2°C 65.4°F18.6°C 85% 8.6 mph SW13.8 kmh SW 22.0 mph35.4 kmh 29.86 in1011.2 mb 0.00 in0.0 mm 0.00 in0.0 mm 0.05 in1.3 mm
09:56 AM 70.3°F21.3°C 65.6°F18.7°C 85% 9.9 mph SW15.9 kmh SW 22.0 mph35.4 kmh 29.86 in1011.2 mb 0.00 in0.0 mm 0.00 in0.0 mm 0.05 in1.3 mm
10:01 AM 70.5°F21.4°C 65.5°F18.6°C 84% 7.1 mph SW11.4 kmh SW 22.0 mph35.4 kmh 29.86 in1011.2 mb 0.00 in0.0 mm 0.00 in0.0 mm 0.05 in1.3 mm
10:06 AM 70.9°F21.6°C 65.5°F18.6°C 83% 8.8 mph SW14.2 kmh SW 22.0 mph35.4 kmh 29.86 in1011.2 mb 0.00 in0.0 mm 0.00 in0.0 mm 0.05 in1.3 mm
10:11 AM 71.3°F21.8°C 65.6°F18.7°C 82% 7.3 mph SW11.7 kmh SW 21.0 mph33.8 kmh 29.85 in1010.8 mb 0.00 in0.0 mm 0.00 in0.0 mm 0.05 in1.3 mm
10:16 AM 71.5°F21.9°C 65.4°F18.6°C 81% 8.8 mph SW14.2 kmh SW 21.0 mph33.8 kmh 29.85 in1010.8 mb 0.00 in0.0 mm 0.00 in0.0 mm 0.05 in1.3 mm
10:21 AM 71.6°F22.0°C 65.2°F18.4°C 80% 8.7 mph SW14.0 kmh SW 21.0 mph33.8 kmh 29.85 in1010.8 mb 0.00 in0.0 mm 0.00 in0.0 mm 0.05 in1.3 mm
10:26 AM 71.8°F22.1°C 65.4°F18.6°C 80% 4.9 mph WSW7.9 kmh WSW 21.0 mph33.8 kmh 29.86 in1011.2 mb 0.00 in0.0 mm 0.00 in0.0 mm 0.05 in1.3 mm
10:31 AM 72.0°F22.2°C 65.2°F18.4°C 79% 9.6 mph WSW15.4 kmh WSW 25.0 mph40.2 kmh 29.86 in1011.2 mb 0.00 in0.0 mm 0.00 in0.0 mm 0.05 in1.3 mm
10:36 AM 72.1°F22.3°C 64.6°F18.1°C 77% 9.6 mph WSW15.4 kmh WSW 25.0 mph40.2 kmh 29.86 in1011.2 mb 0.00 in0.0 mm 0.00 in0.0 mm 0.05 in1.3 mm
10:41 AM 72.2°F22.3°C 65.1°F18.4°C 78% 10.1 mph SW16.3 kmh SW 25.0 mph40.2 kmh 29.85 in1010.8 mb 0.00 in0.0 mm 0.00 in0.0 mm 0.05 in1.3 mm
10:46 AM 72.2°F22.3°C 65.4°F18.6°C 79% 8.5 mph SW13.7 kmh SW 25.0 mph40.2 kmh 29.85 in1010.8 mb 0.00 in0.0 mm 0.00 in0.0 mm 0.05 in1.3 mm
10:51 AM 72.4°F22.4°C 65.6°F18.7°C 79% 7.0 mph WSW11.3 kmh WSW 23.0 mph37.0 kmh 29.85 in1010.8 mb 0.00 in0.0 mm 0.00 in0.0 mm 0.05 in1.3 mm
10:56 AM 72.6°F22.6°C 65.1°F18.4°C 77% 8.3 mph SW13.4 kmh SW 20.0 mph32.2 kmh 29.84 in1010.5 mb 0.00 in0.0 mm 0.00 in0.0 mm 0.05 in1.3 mm
11:01 AM 73.0°F22.8°C 65.5°F18.6°C 77% 10.5 mph SW16.9 kmh SW 26.0 mph41.8 kmh 29.84 in1010.5 mb 0.00 in0.0 mm 0.00 in0.0 mm 0.05 in1.3 mm
11:06 AM 73.1°F22.8°C 65.2°F18.4°C 76% 9.1 mph SW14.6 kmh SW 27.0 mph43.5 kmh 29.84 in1010.5 mb 0.00 in0.0 mm 0.00 in0.0 mm 0.05 in1.3 mm
11:11 AM 73.1°F22.8°C 65.2°F18.4°C 76% 10.4 mph SW16.7 kmh SW 27.0 mph43.5 kmh 29.84 in1010.5 mb 0.00 in0.0 mm 0.00 in0.0 mm 0.05 in1.3 mm
11:16 AM 73.1°F22.8°C 65.2°F18.4°C 76% 10.7 mph SW17.2 kmh SW 27.0 mph43.5 kmh 29.84 in1010.5 mb 0.00 in0.0 mm 0.00 in0.0 mm 0.05 in1.3 mm
11:21 AM 73.3°F22.9°C 65.4°F18.6°C 76% 9.2 mph SW14.8 kmh SW 24.0 mph38.6 kmh 29.84 in1010.5 mb 0.00 in0.0 mm 0.00 in0.0 mm 0.05 in1.3 mm
11:26 AM 73.5°F23.1°C 65.2°F18.4°C 75% 10.7 mph SW17.2 kmh SW 24.0 mph38.6 kmh 29.84 in1010.5 mb 0.00 in0.0 mm 0.00 in0.0 mm 0.05 in1.3 mm
11:31 AM 73.6°F23.1°C 65.3°F18.5°C 75% 10.8 mph SW17.4 kmh SW 22.0 mph35.4 kmh 29.84 in1010.5 mb 0.00 in0.0 mm 0.00 in0.0 mm 0.05 in1.3 mm
11:36 AM 73.7°F23.2°C 65.4°F18.6°C 75% 8.5 mph SW13.7 kmh SW 21.0 mph33.8 kmh 29.84 in1010.5 mb 0.00 in0.0 mm 0.00 in0.0 mm 0.05 in1.3 mm
11:41 AM 73.5°F23.1°C 65.2°F18.4°C 75% 8.6 mph SW13.8 kmh SW 21.0 mph33.8 kmh 29.83 in1010.2 mb 0.00 in0.0 mm 0.00 in0.0 mm 0.05 in1.3 mm
11:46 AM 73.5°F23.1°C 65.2°F18.4°C 75% 3.6 mph SW5.8 kmh SW 19.0 mph30.6 kmh 29.84 in1010.5 mb 0.00 in0.0 mm 0.00 in0.0 mm 0.05 in1.3 mm
11:51 AM 73.5°F23.1°C 64.9°F18.3°C 74% 9.9 mph SW15.9 kmh SW 19.0 mph30.6 kmh 29.83 in1010.2 mb 0.00 in0.0 mm 0.00 in0.0 mm 0.05 in1.3 mm
11:56 AM 73.8°F23.2°C 65.2°F18.4°C 74% 12.3 mph SW19.8 kmh SW 22.0 mph35.4 kmh 29.83 in1010.2 mb 0.00 in0.0 mm 0.00 in0.0 mm 0.05 in1.3 mm
12:01 PM 74.1°F23.4°C 65.1°F18.4°C 73% 8.4 mph SW13.5 kmh SW 22.0 mph35.4 kmh 29.83 in1010.2 mb 0.00 in0.0 mm 0.00 in0.0 mm 0.05 in1.3 mm
12:06 PM 74.4°F23.6°C 65.4°F18.6°C 73% 10.6 mph SW17.1 kmh SW 22.0 mph35.4 kmh 29.82 in1009.8 mb 0.00 in0.0 mm 0.00 in0.0 mm 0.05 in1.3 mm
12:11 PM 74.6°F23.7°C 65.2°F18.4°C 72% 14.7 mph SW23.7 kmh SW 27.0 mph43.5 kmh 29.82 in1009.8 mb 0.00 in0.0 mm 0.00 in0.0 mm 0.05 in1.3 mm
12:16 PM 75.1°F23.9°C 65.5°F18.6°C 72% 10.1 mph SW16.3 kmh SW 27.0 mph43.5 kmh 29.81 in1009.5 mb 0.00 in0.0 mm 0.00 in0.0 mm 0.05 in1.3 mm
12:21 PM 75.2°F24.0°C 65.1°F18.4°C 71% 6.4 mph WSW10.3 kmh WSW 27.0 mph43.5 kmh 29.81 in1009.5 mb 0.00 in0.0 mm 0.00 in0.0 mm 0.05 in1.3 mm
12:26 PM 75.3°F24.1°C 65.4°F18.6°C 71% 3.1 mph SW5.0 kmh SW 27.0 mph43.5 kmh 29.80 in1009.1 mb 0.00 in0.0 mm 0.00 in0.0 mm 0.05 in1.3 mm
12:31 PM 75.1°F23.9°C 64.8°F18.2°C 70% 9.7 mph SW15.6 kmh SW 27.0 mph43.5 kmh 29.81 in1009.5 mb 0.00 in0.0 mm 0.00 in0.0 mm 0.05 in1.3 mm
12:36 PM 75.4°F24.1°C 64.7°F18.2°C 69% 9.6 mph WSW15.4 kmh WSW 28.0 mph45.1 kmh 29.81 in1009.5 mb 0.00 in0.0 mm 0.00 in0.0 mm 0.05 in1.3 mm
12:41 PM 75.7°F24.3°C 65.0°F18.3°C 69% 8.8 mph SW14.2 kmh SW 28.0 mph45.1 kmh 29.80 in1009.1 mb 0.00 in0.0 mm 0.00 in0.0 mm 0.05 in1.3 mm
12:46 PM 75.8°F24.3°C 65.1°F18.4°C 69% 5.0 mph SW8.0 kmh SW 28.0 mph45.1 kmh 29.80 in1009.1 mb 0.00 in0.0 mm 0.00 in0.0 mm 0.05 in1.3 mm
12:51 PM 75.8°F24.3°C 65.1°F18.4°C 69% 9.9 mph SW15.9 kmh SW 28.0 mph45.1 kmh 29.80 in1009.1 mb 0.00 in0.0 mm 0.00 in0.0 mm 0.05 in1.3 mm
12:56 PM 75.7°F24.3°C 65.0°F18.3°C 69% 7.3 mph SW11.7 kmh SW 22.0 mph35.4 kmh 29.80 in1009.1 mb 0.00 in0.0 mm 0.00 in0.0 mm 0.05 in1.3 mm
01:01 PM 75.8°F24.3°C 64.7°F18.2°C 68% 10.5 mph SW16.9 kmh SW 21.0 mph33.8 kmh 29.80 in1009.1 mb 0.00 in0.0 mm 0.00 in0.0 mm 0.05 in1.3 mm
01:06 PM 75.7°F24.3°C 64.2°F17.9°C 67% 13.3 mph WSW21.4 kmh WSW 22.0 mph35.4 kmh 29.80 in1009.1 mb 0.00 in0.0 mm 0.00 in0.0 mm 0.05 in1.3 mm
01:11 PM 75.7°F24.3°C 64.6°F18.1°C 68% 5.7 mph SW9.2 kmh SW 22.0 mph35.4 kmh 29.79 in1008.8 mb 0.00 in0.0 mm 0.00 in0.0 mm 0.05 in1.3 mm
01:16 PM 75.6°F24.2°C 65.3°F18.5°C 70% 2.7 mph WSW4.3 kmh WSW 22.0 mph35.4 kmh 29.79 in1008.8 mb 0.00 in0.0 mm 0.00 in0.0 mm 0.05 in1.3 mm
01:21 PM 75.3°F24.1°C 65.4°F18.6°C 71% 9.5 mph SW15.3 kmh SW 22.0 mph35.4 kmh 29.79 in1008.8 mb 0.00 in0.0 mm 0.00 in0.0 mm 0.05 in1.3 mm
01:26 PM 74.6°F23.7°C 65.5°F18.6°C 73% 8.5 mph WSW13.7 kmh WSW 24.0 mph38.6 kmh 29.79 in1008.8 mb 0.00 in0.0 mm 0.00 in0.0 mm 0.05 in1.3 mm
01:31 PM 73.5°F23.1°C 65.8°F18.8°C 77% 7.0 mph WSW11.3 kmh WSW 24.0 mph38.6 kmh 29.78 in1008.5 mb 0.01 in0.3 mm 0.12 in3.0 mm 0.06 in1.5 mm
01:36 PM 73.3°F22.9°C 66.5°F19.2°C 79% 6.2 mph WSW10.0 kmh WSW 24.0 mph38.6 kmh 29.78 in1008.5 mb 0.01 in0.3 mm 0.00 in0.0 mm 0.06 in1.5 mm
01:41 PM 74.1°F23.4°C 66.9°F19.4°C 78% 5.5 mph WSW8.9 kmh WSW 24.0 mph38.6 kmh 29.78 in1008.5 mb 0.01 in0.3 mm 0.00 in0.0 mm 0.06 in1.5 mm
01:46 PM 74.7°F23.7°C 66.8°F19.3°C 76% 6.8 mph WSW10.9 kmh WSW 20.0 mph32.2 kmh 29.78 in1008.5 mb 0.01 in0.3 mm 0.00 in0.0 mm 0.06 in1.5 mm
01:51 PM 75.2°F24.0°C 66.1°F18.9°C 73% 6.0 mph WSW9.7 kmh WSW 17.0 mph27.4 kmh 29.77 in1008.1 mb 0.01 in0.3 mm 0.00 in0.0 mm 0.06 in1.5 mm
01:56 PM 75.6°F24.2°C 66.1°F18.9°C 72% 6.2 mph WSW10.0 kmh WSW 20.0 mph32.2 kmh 29.77 in1008.1 mb 0.01 in0.3 mm 0.00 in0.0 mm 0.06 in1.5 mm
02:01 PM 76.0°F24.4°C 65.3°F18.5°C 69% 8.6 mph WSW13.8 kmh WSW 24.0 mph38.6 kmh 29.77 in1008.1 mb 0.01 in0.3 mm 0.00 in0.0 mm 0.06 in1.5 mm
02:06 PM 76.4°F24.7°C 64.9°F18.3°C 67% 14.1 mph SW22.7 kmh SW 24.0 mph38.6 kmh 29.76 in1007.8 mb 0.01 in0.3 mm 0.00 in0.0 mm 0.06 in1.5 mm
02:11 PM 76.9°F24.9°C 64.7°F18.2°C 66% 10.2 mph WSW16.4 kmh WSW 24.0 mph38.6 kmh 29.76 in1007.8 mb 0.01 in0.3 mm 0.00 in0.0 mm 0.06 in1.5 mm
02:16 PM 77.1°F25.1°C 64.4°F18.0°C 65% 12.7 mph SW20.4 kmh SW 26.0 mph41.8 kmh 29.76 in1007.8 mb 0.01 in0.3 mm 0.00 in0.0 mm 0.06 in1.5 mm
02:21 PM 76.4°F24.7°C 63.1°F17.3°C 63% 9.8 mph NW15.8 kmh NW 26.0 mph41.8 kmh 29.80 in1009.1 mb 0.01 in0.3 mm 0.00 in0.0 mm 0.06 in1.5 mm
02:26 PM 71.2°F21.8°C 60.7°F15.9°C 69% 9.8 mph NW15.8 kmh NW 26.0 mph41.8 kmh 29.81 in1009.5 mb 0.01 in0.3 mm 0.00 in0.0 mm 0.06 in1.5 mm
02:31 PM 68.6°F20.3°C 60.9°F16.1°C 76% 10.4 mph NW16.7 kmh NW 26.0 mph41.8 kmh 29.82 in1009.8 mb 0.00 in0.0 mm 0.00 in0.0 mm 0.06 in1.5 mm
02:36 PM 66.9°F19.4°C 60.6°F15.9°C 80% 11.2 mph NW18.0 kmh NW 21.0 mph33.8 kmh 29.82 in1009.8 mb 0.00 in0.0 mm 0.00 in0.0 mm 0.06 in1.5 mm
02:41 PM 65.9°F18.8°C 60.6°F15.9°C 83% 8.3 mph NNW13.4 kmh NNW 21.0 mph33.8 kmh 29.82 in1009.8 mb 0.00 in0.0 mm 0.00 in0.0 mm 0.06 in1.5 mm
02:46 PM 65.0°F18.3°C 59.7°F15.4°C 83% 11.5 mph NW18.5 kmh NW 21.0 mph33.8 kmh 29.84 in1010.5 mb 0.00 in0.0 mm 0.00 in0.0 mm 0.06 in1.5 mm
02:51 PM 63.9°F17.7°C 59.6°F15.3°C 86% 7.8 mph NW12.6 kmh NW 23.0 mph37.0 kmh 29.85 in1010.8 mb 0.01 in0.3 mm 0.12 in3.0 mm 0.07 in1.8 mm
02:56 PM 63.0°F17.2°C 59.4°F15.2°C 88% 9.1 mph NW14.6 kmh NW 23.0 mph37.0 kmh 29.84 in1010.5 mb 0.01 in0.3 mm 0.00 in0.0 mm 0.07 in1.8 mm
03:01 PM 62.6°F17.0°C 59.6°F15.3°C 90% 6.8 mph NW10.9 kmh NW 23.0 mph37.0 kmh 29.86 in1011.2 mb 0.01 in0.3 mm 0.00 in0.0 mm 0.07 in1.8 mm
03:06 PM 62.3°F16.8°C 59.3°F15.2°C 90% 4.4 mph NW7.1 kmh NW 16.0 mph25.7 kmh 29.87 in1011.5 mb 0.01 in0.3 mm 0.00 in0.0 mm 0.07 in1.8 mm
03:11 PM 62.1°F16.7°C 59.4°F15.2°C 91% 7.2 mph NW11.6 kmh NW 19.0 mph30.6 kmh 29.87 in1011.5 mb 0.01 in0.3 mm 0.00 in0.0 mm 0.07 in1.8 mm
03:16 PM 61.6°F16.4°C 58.6°F14.8°C 90% 7.6 mph NW12.2 kmh NW 19.0 mph30.6 kmh 29.87 in1011.5 mb 0.01 in0.3 mm 0.00 in0.0 mm 0.07 in1.8 mm
03:22 PM 61.2°F16.2°C 58.5°F14.7°C 91% 6.9 mph NW11.1 kmh NW 19.0 mph30.6 kmh 29.87 in1011.5 mb 0.01 in0.3 mm 0.00 in0.0 mm 0.07 in1.8 mm
03:27 PM 61.1°F16.2°C 58.4°F14.7°C 91% 7.2 mph NW11.6 kmh NW 19.0 mph30.6 kmh 29.87 in1011.5 mb 0.01 in0.3 mm 0.00 in0.0 mm 0.07 in1.8 mm
03:32 PM 61.1°F16.2°C 58.1°F14.5°C 90% 10.1 mph NW16.3 kmh NW 18.0 mph29.0 kmh 29.88 in1011.9 mb 0.01 in0.3 mm 0.00 in0.0 mm 0.07 in1.8 mm
03:37 PM 61.1°F16.2°C 58.1°F14.5°C 90% 7.7 mph NW12.4 kmh NW 19.0 mph30.6 kmh 29.88 in1011.9 mb 0.01 in0.3 mm 0.00 in0.0 mm 0.07 in1.8 mm
03:42 PM 60.9°F16.1°C 57.6°F14.2°C 89% 7.9 mph NW12.7 kmh NW 21.0 mph33.8 kmh 29.89 in1012.2 mb 0.01 in0.3 mm 0.00 in0.0 mm 0.07 in1.8 mm
03:47 PM 60.6°F15.9°C 57.3°F14.1°C 89% 5.7 mph NW9.2 kmh NW 21.0 mph33.8 kmh 29.89 in1012.2 mb 0.01 in0.3 mm 0.00 in0.0 mm 0.07 in1.8 mm
03:52 PM 60.4°F15.8°C 57.1°F13.9°C 89% 7.4 mph NW11.9 kmh NW 21.0 mph33.8 kmh 29.89 in1012.2 mb 0.00 in0.0 mm 0.00 in0.0 mm 0.07 in1.8 mm
03:57 PM 60.2°F15.7°C 56.9°F13.8°C 89% 9.5 mph NW15.3 kmh NW 21.0 mph33.8 kmh 29.89 in1012.2 mb 0.00 in0.0 mm 0.00 in0.0 mm 0.07 in1.8 mm
04:02 PM 60.1°F15.6°C 56.8°F13.8°C 89% 8.4 mph NW13.5 kmh NW 18.0 mph29.0 kmh 29.89 in1012.2 mb 0.00 in0.0 mm 0.00 in0.0 mm 0.07 in1.8 mm
04:07 PM 60.0°F15.6°C 56.7°F13.7°C 89% 6.9 mph NW11.1 kmh NW 16.0 mph25.7 kmh 29.89 in1012.2 mb 0.00 in0.0 mm 0.00 in0.0 mm 0.07 in1.8 mm
04:12 PM 60.1°F15.6°C 56.8°F13.8°C 89% 7.1 mph NW11.4 kmh NW 16.0 mph25.7 kmh 29.89 in1012.2 mb 0.00 in0.0 mm 0.00 in0.0 mm 0.07 in1.8 mm
04:17 PM 60.1°F15.6°C 56.8°F13.8°C 89% 5.6 mph NW9.0 kmh NW 16.0 mph25.7 kmh 29.89 in1012.2 mb 0.00 in0.0 mm 0.00 in0.0 mm 0.07 in1.8 mm
04:22 PM 60.1°F15.6°C 56.5°F13.6°C 88% 5.3 mph NNW8.5 kmh NNW 16.0 mph25.7 kmh 29.89 in1012.2 mb 0.00 in0.0 mm 0.00 in0.0 mm 0.07 in1.8 mm
04:27 PM 60.2°F15.7°C 56.3°F13.5°C 87% 7.3 mph NNW11.7 kmh NNW 17.0 mph27.4 kmh 29.89 in1012.2 mb 0.00 in0.0 mm 0.00 in0.0 mm 0.07 in1.8 mm
04:32 PM 60.1°F15.6°C 56.5°F13.6°C 88% 7.2 mph NW11.6 kmh NW 17.0 mph27.4 kmh 29.89 in1012.2 mb 0.00 in0.0 mm 0.00 in0.0 mm 0.07 in1.8 mm
04:37 PM 60.1°F15.6°C 56.5°F13.6°C 88% 5.1 mph NW8.2 kmh NW 17.0 mph27.4 kmh 29.90 in1012.5 mb 0.00 in0.0 mm 0.00 in0.0 mm 0.07 in1.8 mm
04:42 PM 60.0°F15.6°C 56.4°F13.6°C 88% 2.9 mph NW4.7 kmh NW 17.0 mph27.4 kmh 29.90 in1012.5 mb 0.00 in0.0 mm 0.00 in0.0 mm 0.07 in1.8 mm
04:47 PM 60.0°F15.6°C 56.7°F13.7°C 89% 4.9 mph NW7.9 kmh NW 14.0 mph22.5 kmh 29.91 in1012.9 mb 0.00 in0.0 mm 0.00 in0.0 mm 0.07 in1.8 mm
04:52 PM 59.9°F15.5°C 56.6°F13.7°C 89% 3.0 mph NW4.8 kmh NW 14.0 mph22.5 kmh 29.91 in1012.9 mb 0.00 in0.0 mm 0.00 in0.0 mm 0.07 in1.8 mm
04:57 PM 59.7°F15.4°C 56.4°F13.6°C 89% 5.8 mph WNW9.3 kmh WNW 11.0 mph17.7 kmh 29.91 in1012.9 mb 0.00 in0.0 mm 0.00 in0.0 mm 0.07 in1.8 mm
05:02 PM 59.6°F15.3°C 56.6°F13.7°C 90% 2.5 mph NW4.0 kmh NW 11.0 mph17.7 kmh 29.91 in1012.9 mb 0.00 in0.0 mm 0.00 in0.0 mm 0.07 in1.8 mm
05:07 PM 59.5°F15.3°C 56.5°F13.6°C 90% 4.6 mph WNW7.4 kmh WNW 11.0 mph17.7 kmh 29.91 in1012.9 mb 0.00 in0.0 mm 0.00 in0.0 mm 0.07 in1.8 mm
05:12 PM 59.4°F15.2°C 56.7°F13.7°C 91% 4.1 mph WNW6.6 kmh WNW 11.0 mph17.7 kmh 29.91 in1012.9 mb 0.00 in0.0 mm 0.00 in0.0 mm 0.07 in1.8 mm
05:17 PM 59.3°F15.2°C 56.6°F13.7°C 91% 3.1 mph WNW5.0 kmh WNW 10.0 mph16.1 kmh 29.91 in1012.9 mb 0.00 in0.0 mm 0.00 in0.0 mm 0.07 in1.8 mm
05:22 PM 59.3°F15.2°C 56.6°F13.7°C 91% 2.1 mph WNW3.4 kmh WNW 10.0 mph16.1 kmh 29.92 in1013.2 mb 0.00 in0.0 mm 0.00 in0.0 mm 0.07 in1.8 mm
05:27 PM 59.3°F15.2°C 56.6°F13.7°C 91% 4.6 mph WNW7.4 kmh WNW 9.0 mph14.5 kmh 29.91 in1012.9 mb 0.00 in0.0 mm 0.00 in0.0 mm 0.07 in1.8 mm
05:32 PM 59.3°F15.2°C 56.3°F13.5°C 90% 4.1 mph WNW6.6 kmh WNW 9.0 mph14.5 kmh 29.90 in1012.5 mb 0.00 in0.0 mm 0.00 in0.0 mm 0.07 in1.8 mm
05:37 PM 59.3°F15.2°C 56.3°F13.5°C 90% 3.7 mph W6.0 kmh W 10.0 mph16.1 kmh 29.91 in1012.9 mb 0.00 in0.0 mm 0.00 in0.0 mm 0.07 in1.8 mm
05:42 PM 59.4°F15.2°C 56.4°F13.6°C 90% 3.5 mph W5.6 kmh W 10.0 mph16.1 kmh 29.91 in1012.9 mb 0.00 in0.0 mm 0.00 in0.0 mm 0.07 in1.8 mm
05:47 PM 59.4°F15.2°C 56.4°F13.6°C 90% 3.8 mph WNW6.1 kmh WNW 10.0 mph16.1 kmh 29.90 in1012.5 mb 0.00 in0.0 mm 0.00 in0.0 mm 0.07 in1.8 mm
05:52 PM 59.4°F15.2°C 56.4°F13.6°C 90% 2.8 mph WNW4.5 kmh WNW 10.0 mph16.1 kmh 29.90 in1012.5 mb 0.00 in0.0 mm 0.00 in0.0 mm 0.07 in1.8 mm
05:57 PM 59.4°F15.2°C 56.4°F13.6°C 90% 5.1 mph WNW8.2 kmh WNW 8.0 mph12.9 kmh 29.91 in1012.9 mb 0.00 in0.0 mm 0.00 in0.0 mm 0.07 in1.8 mm
06:02 PM 59.5°F15.3°C 56.3°F13.5°C 89% 2.5 mph W4.0 kmh W 8.0 mph12.9 kmh 29.91 in1012.9 mb 0.00 in0.0 mm 0.00 in0.0 mm 0.07 in1.8 mm
06:07 PM 59.5°F15.3°C 56.3°F13.5°C 89% 3.7 mph W6.0 kmh W 8.0 mph12.9 kmh 29.92 in1013.2 mb 0.00 in0.0 mm 0.00 in0.0 mm 0.07 in1.8 mm
06:12 PM 59.6°F15.3°C 56.6°F13.7°C 90% 2.6 mph W4.2 kmh W 9.0 mph14.5 kmh 29.92 in1013.2 mb 0.00 in0.0 mm 0.00 in0.0 mm 0.07 in1.8 mm
06:17 PM 59.5°F15.3°C 56.6°F13.7°C 90% 3.5 mph W5.6 kmh W 9.0 mph14.5 kmh 29.92 in1013.2 mb 0.00 in0.0 mm 0.00 in0.0 mm 0.07 in1.8 mm
06:22 PM 59.4°F15.2°C 56.4°F13.6°C 90% 3.6 mph WNW5.8 kmh WNW 9.0 mph14.5 kmh 29.92 in1013.2 mb 0.00 in0.0 mm 0.00 in0.0 mm 0.07 in1.8 mm
06:27 PM 59.4°F15.2°C 56.4°F13.6°C 90% 4.1 mph W6.6 kmh W 8.0 mph12.9 kmh 29.92 in1013.2 mb 0.00 in0.0 mm 0.00 in0.0 mm 0.07 in1.8 mm
06:32 PM 59.3°F15.2°C 56.3°F13.5°C 90% 3.4 mph W5.5 kmh W 8.0 mph12.9 kmh 29.93 in1013.5 mb 0.00 in0.0 mm 0.00 in0.0 mm 0.07 in1.8 mm
06:37 PM 59.1°F15.1°C 56.5°F13.6°C 91% 4.6 mph W7.4 kmh W 8.0 mph12.9 kmh 29.94 in1013.9 mb 0.00 in0.0 mm 0.00 in0.0 mm 0.07 in1.8 mm
06:42 PM 59.0°F15.0°C 56.4°F13.6°C 91% 4.1 mph W6.6 kmh W 9.0 mph14.5 kmh 29.94 in1013.9 mb 0.01 in0.3 mm 0.12 in3.0 mm 0.08 in2.0 mm
06:47 PM 59.0°F15.0°C 56.4°F13.6°C 91% 4.6 mph WNW7.4 kmh WNW 9.0 mph14.5 kmh 29.95 in1014.2 mb 0.01 in0.3 mm 0.00 in0.0 mm 0.08 in2.0 mm
06:52 PM 59.0°F15.0°C 56.3°F13.5°C 91% 6.4 mph WNW10.3 kmh WNW 11.0 mph17.7 kmh 29.95 in1014.2 mb 0.01 in0.3 mm 0.00 in0.0 mm 0.08 in2.0 mm
06:57 PM 59.1°F15.1°C 55.8°F13.2°C 89% 6.8 mph WNW10.9 kmh WNW 12.0 mph19.3 kmh 29.94 in1013.9 mb 0.01 in0.3 mm 0.00 in0.0 mm 0.08 in2.0 mm
07:02 PM 59.2°F15.1°C 55.6°F13.1°C 88% 8.0 mph WNW12.9 kmh WNW 16.0 mph25.7 kmh 29.94 in1013.9 mb 0.01 in0.3 mm 0.00 in0.0 mm 0.08 in2.0 mm
07:07 PM 59.3°F15.2°C 55.4°F13.0°C 87% 5.4 mph WNW8.7 kmh WNW 16.0 mph25.7 kmh 29.94 in1013.9 mb 0.01 in0.3 mm 0.00 in0.0 mm 0.08 in2.0 mm
07:12 PM 59.4°F15.2°C 55.5°F13.1°C 87% 5.6 mph WNW9.0 kmh WNW 16.0 mph25.7 kmh 29.94 in1013.9 mb 0.01 in0.3 mm 0.00 in0.0 mm 0.08 in2.0 mm
07:17 PM 59.4°F15.2°C 55.2°F12.9°C 86% 7.0 mph WNW11.3 kmh WNW 16.0 mph25.7 kmh 29.94 in1013.9 mb 0.01 in0.3 mm 0.00 in0.0 mm 0.08 in2.0 mm
07:22 PM 59.4°F15.2°C 55.2°F12.9°C 86% 8.6 mph WNW13.8 kmh WNW 17.0 mph27.4 kmh 29.95 in1014.2 mb 0.01 in0.3 mm 0.00 in0.0 mm 0.08 in2.0 mm
07:27 PM 59.5°F15.3°C 55.3°F12.9°C 86% 3.7 mph WNW6.0 kmh WNW 17.0 mph27.4 kmh 29.94 in1013.9 mb 0.01 in0.3 mm 0.00 in0.0 mm 0.08 in2.0 mm
07:32 PM 59.4°F15.2°C 54.9°F12.7°C 85% 6.8 mph WNW10.9 kmh WNW 17.0 mph27.4 kmh 29.95 in1014.2 mb 0.01 in0.3 mm 0.00 in0.0 mm 0.08 in2.0 mm
07:37 PM 59.4°F15.2°C 54.9°F12.7°C 85% 5.3 mph WNW8.5 kmh WNW 17.0 mph27.4 kmh 29.95 in1014.2 mb 0.01 in0.3 mm 0.00 in0.0 mm 0.08 in2.0 mm
07:42 PM 59.3°F15.2°C 54.8°F12.7°C 85% 5.7 mph WNW9.2 kmh WNW 14.0 mph22.5 kmh 29.95 in1014.2 mb 0.00 in0.0 mm 0.00 in0.0 mm 0.08 in2.0 mm
07:47 PM 59.3°F15.2°C 54.8°F12.7°C 85% 6.0 mph WNW9.7 kmh WNW 13.0 mph20.9 kmh 29.95 in1014.2 mb 0.00 in0.0 mm 0.00 in0.0 mm 0.08 in2.0 mm
07:52 PM 59.3°F15.2°C 54.8°F12.7°C 85% 4.6 mph W7.4 kmh W 13.0 mph20.9 kmh 29.95 in1014.2 mb 0.00 in0.0 mm 0.00 in0.0 mm 0.08 in2.0 mm
07:57 PM 59.2°F15.1°C 54.7°F12.6°C 85% 4.3 mph WNW6.9 kmh WNW 13.0 mph20.9 kmh 29.95 in1014.2 mb 0.00 in0.0 mm 0.00 in0.0 mm 0.08 in2.0 mm
08:02 PM 59.2°F15.1°C 54.7°F12.6°C 85% 7.3 mph WNW11.7 kmh WNW 15.0 mph24.1 kmh 29.95 in1014.2 mb 0.00 in0.0 mm 0.00 in0.0 mm 0.08 in2.0 mm
08:07 PM 59.2°F15.1°C 54.7°F12.6°C 85% 3.9 mph W6.3 kmh W 15.0 mph24.1 kmh 29.96 in1014.6 mb 0.00 in0.0 mm 0.00 in0.0 mm 0.08 in2.0 mm
08:12 PM 59.1°F15.1°C 54.6°F12.6°C 85% 9.6 mph WNW15.4 kmh WNW 18.0 mph29.0 kmh 29.96 in1014.6 mb 0.00 in0.0 mm 0.00 in0.0 mm 0.08 in2.0 mm
08:17 PM 59.1°F15.1°C 54.6°F12.6°C 85% 5.4 mph WNW8.7 kmh WNW 18.0 mph29.0 kmh 29.96 in1014.6 mb 0.00 in0.0 mm 0.00 in0.0 mm 0.08 in2.0 mm
08:22 PM 59.1°F15.1°C 54.3°F12.4°C 84% 7.3 mph W11.7 kmh W 18.0 mph29.0 kmh 29.97 in1014.9 mb 0.00 in0.0 mm 0.00 in0.0 mm 0.08 in2.0 mm
08:27 PM 59.0°F15.0°C 54.5°F12.5°C 85% 6.0 mph W9.7 kmh W 18.0 mph29.0 kmh 29.97 in1014.9 mb 0.00 in0.0 mm 0.00 in0.0 mm 0.08 in2.0 mm
08:32 PM 58.7°F14.8°C 54.5°F12.5°C 86% 4.5 mph WNW7.2 kmh WNW 16.0 mph25.7 kmh 29.95 in1014.2 mb 0.00 in0.0 mm 0.00 in0.0 mm 0.08 in2.0 mm
08:37 PM 58.4°F14.7°C 54.5°F12.5°C 87% 5.0 mph W8.0 kmh W 16.0 mph25.7 kmh 29.98 in1015.2 mb 0.00 in0.0 mm 0.00 in0.0 mm 0.08 in2.0 mm
08:42 PM 58.2°F14.6°C 54.6°F12.6°C 88% 3.6 mph W5.8 kmh W 16.0 mph25.7 kmh 29.98 in1015.2 mb 0.00 in0.0 mm 0.00 in0.0 mm 0.08 in2.0 mm
08:47 PM 58.1°F14.5°C 54.5°F12.5°C 88% 7.5 mph WNW12.1 kmh WNW 16.0 mph25.7 kmh 29.98 in1015.2 mb 0.00 in0.0 mm 0.00 in0.0 mm 0.08 in2.0 mm
08:52 PM 58.1°F14.5°C 54.5°F12.5°C 88% 7.5 mph W12.1 kmh W 15.0 mph24.1 kmh 29.98 in1015.2 mb 0.00 in0.0 mm 0.00 in0.0 mm 0.08 in2.0 mm
08:57 PM 58.0°F14.4°C 54.4°F12.4°C 88% 6.6 mph W10.6 kmh W 15.0 mph24.1 kmh 29.98 in1015.2 mb 0.00 in0.0 mm 0.00 in0.0 mm 0.08 in2.0 mm
09:02 PM 58.0°F14.4°C 54.4°F12.4°C 88% 3.6 mph W5.8 kmh W 15.0 mph24.1 kmh 29.98 in1015.2 mb 0.00 in0.0 mm 0.00 in0.0 mm 0.08 in2.0 mm
09:07 PM 57.9°F14.4°C 54.7°F12.6°C 89% 4.7 mph W7.6 kmh W 14.0 mph22.5 kmh 29.98 in1015.2 mb 0.00 in0.0 mm 0.00 in0.0 mm 0.08 in2.0 mm
09:12 PM 57.9°F14.4°C 54.4°F12.4°C 88% 6.8 mph W10.9 kmh W 14.0 mph22.5 kmh 29.98 in1015.2 mb 0.00 in0.0 mm 0.00 in0.0 mm 0.08 in2.0 mm
09:17 PM 57.9°F14.4°C 54.4°F12.4°C 88% 6.3 mph W10.1 kmh W 14.0 mph22.5 kmh 29.98 in1015.2 mb 0.00 in0.0 mm 0.00 in0.0 mm 0.08 in2.0 mm
09:22 PM 58.0°F14.4°C 54.5°F12.5°C 88% 5.8 mph W9.3 kmh W 16.0 mph25.7 kmh 29.98 in1015.2 mb 0.00 in0.0 mm 0.00 in0.0 mm 0.08 in2.0 mm
09:27 PM 57.9°F14.4°C 54.4°F12.4°C 88% 6.0 mph WNW9.7 kmh WNW 16.0 mph25.7 kmh 29.99 in1015.6 mb 0.00 in0.0 mm 0.00 in0.0 mm 0.08 in2.0 mm
09:32 PM 57.8°F14.3°C 54.3°F12.4°C 88% 7.7 mph W12.4 kmh W 16.0 mph25.7 kmh 29.99 in1015.6 mb 0.00 in0.0 mm 0.00 in0.0 mm 0.08 in2.0 mm
09:37 PM 57.7°F14.3°C 54.5°F12.5°C 89% 5.6 mph W9.0 kmh W 16.0 mph25.7 kmh 29.99 in1015.6 mb 0.00 in0.0 mm 0.00 in0.0 mm 0.08 in2.0 mm
09:42 PM 57.6°F14.2°C 54.4°F12.4°C 89% 7.5 mph WNW12.1 kmh WNW 16.0 mph25.7 kmh 29.99 in1015.6 mb 0.00 in0.0 mm 0.00 in0.0 mm 0.08 in2.0 mm
09:47 PM 57.5°F14.2°C 54.3°F12.4°C 89% 7.8 mph W12.6 kmh W 16.0 mph25.7 kmh 29.99 in1015.6 mb 0.00 in0.0 mm 0.00 in0.0 mm 0.08 in2.0 mm
09:52 PM 57.4°F14.1°C 54.2°F12.3°C 89% 5.7 mph WNW9.2 kmh WNW 16.0 mph25.7 kmh 29.99 in1015.6 mb 0.00 in0.0 mm 0.00 in0.0 mm 0.08 in2.0 mm
09:57 PM 57.4°F14.1°C 54.2°F12.3°C 89% 8.0 mph W12.9 kmh W 20.0 mph32.2 kmh 29.99 in1015.6 mb 0.00 in0.0 mm 0.00 in0.0 mm 0.08 in2.0 mm
10:02 PM 57.4°F14.1°C 54.2°F12.3°C 89% 6.5 mph WNW10.5 kmh WNW 20.0 mph32.2 kmh 30.00 in1015.9 mb 0.00 in0.0 mm 0.00 in0.0 mm 0.08 in2.0 mm
10:07 PM 57.4°F14.1°C 54.2°F12.3°C 89% 6.8 mph W10.9 kmh W 20.0 mph32.2 kmh 30.00 in1015.9 mb 0.00 in0.0 mm 0.00 in0.0 mm 0.08 in2.0 mm
10:12 PM 57.4°F14.1°C 54.2°F12.3°C 89% 8.1 mph WNW13.0 kmh WNW 20.0 mph32.2 kmh 30.00 in1015.9 mb 0.00 in0.0 mm 0.00 in0.0 mm 0.08 in2.0 mm
10:17 PM 57.3°F14.1°C 54.1°F12.3°C 89% 7.7 mph WNW12.4 kmh WNW 13.0 mph20.9 kmh 30.01 in1016.3 mb 0.00 in0.0 mm 0.00 in0.0 mm 0.08 in2.0 mm
10:22 PM 57.2°F14.0°C 54.0°F12.2°C 89% 7.2 mph WNW11.6 kmh WNW 13.0 mph20.9 kmh 30.01 in1016.3 mb 0.00 in0.0 mm 0.00 in0.0 mm 0.08 in2.0 mm
10:27 PM 57.2°F14.0°C 54.0°F12.2°C 89% 6.4 mph WNW10.3 kmh WNW 17.0 mph27.4 kmh 30.01 in1016.3 mb 0.00 in0.0 mm 0.00 in0.0 mm 0.08 in2.0 mm
10:32 PM 57.1°F13.9°C 53.9°F12.2°C 89% 5.3 mph WNW8.5 kmh WNW 17.0 mph27.4 kmh 30.01 in1016.3 mb 0.00 in0.0 mm 0.00 in0.0 mm 0.08 in2.0 mm
10:37 PM 57.0°F13.9°C 53.8°F12.1°C 89% 5.6 mph WNW9.0 kmh WNW 17.0 mph27.4 kmh 30.01 in1016.3 mb 0.00 in0.0 mm 0.00 in0.0 mm 0.08 in2.0 mm
10:42 PM 56.9°F13.8°C 53.7°F12.1°C 89% 7.8 mph WNW12.6 kmh WNW 15.0 mph24.1 kmh 30.02 in1016.6 mb 0.00 in0.0 mm 0.00 in0.0 mm 0.08 in2.0 mm
10:47 PM 56.9°F13.8°C 53.7°F12.1°C 89% 5.4 mph WNW8.7 kmh WNW 15.0 mph24.1 kmh 30.02 in1016.6 mb 0.00 in0.0 mm 0.00 in0.0 mm 0.08 in2.0 mm
10:52 PM 56.9°F13.8°C 53.7°F12.1°C 89% 4.4 mph WNW7.1 kmh WNW 15.0 mph24.1 kmh 30.02 in1016.6 mb 0.00 in0.0 mm 0.00 in0.0 mm 0.08 in2.0 mm
10:57 PM 56.9°F13.8°C 53.7°F12.1°C 89% 3.8 mph WNW6.1 kmh WNW 15.0 mph24.1 kmh 30.02 in1016.6 mb 0.00 in0.0 mm 0.00 in0.0 mm 0.08 in2.0 mm
11:02 PM 56.8°F13.8°C 53.6°F12.0°C 89% 5.3 mph WNW8.5 kmh WNW 12.0 mph19.3 kmh 30.02 in1016.6 mb 0.00 in0.0 mm 0.00 in0.0 mm 0.08 in2.0 mm
11:07 PM 56.8°F13.8°C 53.6°F12.0°C 89% 5.1 mph WNW8.2 kmh WNW 13.0 mph20.9 kmh 30.02 in1016.6 mb 0.00 in0.0 mm 0.00 in0.0 mm 0.08 in2.0 mm
11:12 PM 56.7°F13.7°C 53.8°F12.1°C 90% 7.2 mph WNW11.6 kmh WNW 13.0 mph20.9 kmh 30.02 in1016.6 mb 0.00 in0.0 mm 0.00 in0.0 mm 0.08 in2.0 mm
11:17 PM 56.6°F13.7°C 53.7°F12.1°C 90% 4.8 mph WNW7.7 kmh WNW 13.0 mph20.9 kmh 30.02 in1016.6 mb 0.00 in0.0 mm 0.00 in0.0 mm 0.08 in2.0 mm
11:22 PM 56.6°F13.7°C 53.7°F12.1°C 90% 3.0 mph WNW4.8 kmh WNW 12.0 mph19.3 kmh 30.02 in1016.6 mb 0.00 in0.0 mm 0.00 in0.0 mm 0.08 in2.0 mm
11:27 PM 56.5°F13.6°C 53.6°F12.0°C 90% 6.3 mph WNW10.1 kmh WNW 12.0 mph19.3 kmh 30.03 in1016.9 mb 0.00 in0.0 mm 0.00 in0.0 mm 0.08 in2.0 mm
11:32 PM 56.5°F13.6°C 53.6°F12.0°C 90% 5.1 mph WNW8.2 kmh WNW 12.0 mph19.3 kmh 30.03 in1016.9 mb 0.00 in0.0 mm 0.00 in0.0 mm 0.08 in2.0 mm
11:37 PM 56.3°F13.5°C 53.4°F11.9°C 90% 1.9 mph WNW3.1 kmh WNW 11.0 mph17.7 kmh 30.03 in1016.9 mb 0.00 in0.0 mm 0.00 in0.0 mm 0.08 in2.0 mm
11:42 PM 56.3°F13.5°C 53.4°F11.9°C 90% 4.3 mph NW6.9 kmh NW 11.0 mph17.7 kmh 30.03 in1016.9 mb 0.00 in0.0 mm 0.00 in0.0 mm 0.08 in2.0 mm
11:47 PM 56.2°F13.4°C 53.3°F11.8°C 90% 5.3 mph WNW8.5 kmh WNW 12.0 mph19.3 kmh 30.03 in1016.9 mb 0.00 in0.0 mm 0.00 in0.0 mm 0.08 in2.0 mm
11:52 PM 56.1°F13.4°C 52.9°F11.6°C 89% 3.6 mph WNW5.8 kmh WNW 12.0 mph19.3 kmh 30.03 in1016.9 mb 0.00 in0.0 mm 0.00 in0.0 mm 0.08 in2.0 mm
11:57 PM 56.0°F13.3°C 53.1°F11.7°C 90% 3.9 mph WNW6.3 kmh WNW 12.0 mph19.3 kmh 30.04 in1017.3 mb 0.00 in0.0 mm 0.00 in0.0 mm 0.08 in2.0 mm